createdAt,value
2023-02-22T00:01:40.027Z,8.329773
2023-02-22T00:05:05.285Z,8.28949
2023-02-22T00:08:30.642Z,8.188782
2023-02-22T00:11:55.932Z,8.098145
2023-02-22T00:15:21.198Z,8.047791
2023-02-22T00:18:46.480Z,8.067932
2023-02-22T00:22:11.807Z,8.067932
2023-02-22T00:25:37.113Z,8.017578
2023-02-22T00:29:02.439Z,7.997437
2023-02-22T00:32:27.827Z,8.047791
2023-02-22T00:35:53.089Z,8.007507
2023-02-22T00:39:18.364Z,8.047791
2023-02-22T00:42:43.648Z,8.108215
2023-02-22T00:46:09.091Z,8.229065
2023-02-22T00:49:34.309Z,8.259277
2023-02-22T00:52:59.582Z,8.198853
2023-02-22T00:56:24.940Z,8.158569
2023-02-22T00:59:50.239Z,8.118286
2023-02-22T01:03:15.557Z,8.178711
2023-02-22T01:06:40.836Z,8.249207
2023-02-22T01:10:06.858Z,8.299561
2023-02-22T01:13:33.292Z,8.339844
2023-02-22T01:16:58.917Z,8.28949
2023-02-22T01:20:24.253Z,8.370056
2023-02-22T01:23:49.550Z,8.329773
2023-02-22T01:27:14.907Z,8.329773
2023-02-22T01:30:40.379Z,8.28949
2023-02-22T01:34:05.522Z,8.329773
2023-02-22T01:37:30.913Z,8.259277
2023-02-22T01:40:56.218Z,8.249207
2023-02-22T01:44:21.502Z,8.198853
2023-02-22T01:47:46.811Z,8.108215
2023-02-22T01:51:12.119Z,8.067932
2023-02-22T01:54:37.513Z,8.03772
2023-02-22T01:58:02.816Z,7.896729
2023-02-22T02:01:28.121Z,7.826233
2023-02-22T02:04:53.464Z,7.816162
2023-02-22T02:08:18.749Z,7.926941
2023-02-22T02:11:44.102Z,7.967224
2023-02-22T02:15:09.418Z,7.977295
2023-02-22T02:18:34.682Z,7.997437
2023-02-22T02:22:00.003Z,8.03772
2023-02-22T02:25:25.306Z,8.078003
2023-02-22T02:28:50.624Z,8.108215
2023-02-22T02:32:16.074Z,8.108215
2023-02-22T02:35:41.207Z,8.148499
2023-02-22T02:39:06.510Z,8.178711
2023-02-22T02:42:31.826Z,8.178711
2023-02-22T02:45:57.142Z,8.148499
2023-02-22T02:49:22.399Z,8.148499
2023-02-22T02:52:47.709Z,8.098145
2023-02-22T02:56:13.062Z,8.017578
2023-02-22T02:59:38.358Z,8.007507
2023-02-22T03:03:03.697Z,8.017578
2023-02-22T03:06:28.980Z,8.078003
2023-02-22T03:09:54.294Z,8.007507
2023-02-22T03:13:19.626Z,7.856445
2023-02-22T03:16:44.995Z,7.715454
2023-02-22T03:20:10.274Z,7.53418
2023-02-22T03:23:35.531Z,7.463684
2023-02-22T03:27:00.859Z,7.423401
2023-02-22T03:30:26.182Z,7.453613
2023-02-22T03:33:51.500Z,7.463684
2023-02-22T03:37:16.870Z,7.483826
2023-02-22T03:40:42.162Z,7.524109
2023-02-22T03:44:07.491Z,7.524109
2023-02-22T03:47:32.775Z,7.53418
2023-02-22T03:50:58.108Z,7.53418
2023-02-22T03:54:23.457Z,7.574463
2023-02-22T03:57:48.754Z,7.554321
2023-02-22T04:01:14.219Z,7.574463
2023-02-22T04:04:39.639Z,7.614746
2023-02-22T04:08:04.757Z,7.584534
2023-02-22T04:11:30.094Z,7.554321
2023-02-22T04:14:55.381Z,7.453613
2023-02-22T04:18:20.707Z,7.393188
2023-02-22T04:21:46.010Z,7.373047
2023-02-22T04:25:11.300Z,7.423401
2023-02-22T04:28:36.637Z,7.463684
2023-02-22T04:32:01.937Z,7.483826
2023-02-22T04:35:31.427Z,7.433472
2023-02-22T04:38:56.285Z,7.53418
2023-02-22T04:42:21.586Z,7.483826
2023-02-22T04:45:46.934Z,7.423401
2023-02-22T04:49:12.189Z,7.463684
2023-02-22T04:52:37.465Z,7.503967
2023-02-22T04:56:02.770Z,7.463684
2023-02-22T04:59:28.039Z,7.463684
2023-02-22T05:02:53.414Z,7.423401
2023-02-22T05:06:18.590Z,7.433472
2023-02-22T05:09:43.797Z,7.463684
2023-02-22T05:13:09.082Z,7.423401
2023-02-22T05:16:34.327Z,7.423401
2023-02-22T05:19:59.644Z,7.453613
2023-02-22T05:23:24.982Z,7.373047
2023-02-22T05:26:50.267Z,7.252197
2023-02-22T05:30:15.620Z,7.211914
2023-02-22T05:33:40.937Z,7.232056
2023-02-22T05:37:06.282Z,7.131348
2023-02-22T05:40:31.558Z,7.060852
2023-02-22T05:43:56.892Z,6.980286
2023-02-22T05:47:22.191Z,6.980286
2023-02-22T05:50:47.469Z,6.940002
2023-02-22T05:54:12.829Z,7.03064
2023-02-22T05:57:38.137Z,7.101135
2023-02-22T06:01:03.652Z,7.16156
2023-02-22T06:04:28.831Z,7.16156
2023-02-22T06:07:54.161Z,7.151489
2023-02-22T06:11:19.872Z,7.121277
2023-02-22T06:14:44.801Z,7.050781
2023-02-22T06:18:10.148Z,6.889648
2023-02-22T06:21:35.450Z,6.758728
2023-02-22T06:25:00.796Z,6.668091
2023-02-22T06:28:26.119Z,6.587524
2023-02-22T06:31:51.569Z,6.517029
2023-02-22T06:35:16.742Z,6.506958
2023-02-22T06:38:42.033Z,6.506958
2023-02-22T06:42:07.361Z,6.476746
2023-02-22T06:45:32.679Z,6.476746
2023-02-22T06:48:57.919Z,6.376038
2023-02-22T06:52:23.319Z,6.355896
2023-02-22T06:55:48.641Z,6.325684
2023-02-22T06:59:13.998Z,6.265259
2023-02-22T07:02:39.344Z,6.305542
2023-02-22T07:06:04.548Z,6.305542
2023-02-22T07:09:29.867Z,6.325684
2023-02-22T07:12:55.068Z,6.325684
2023-02-22T07:16:20.436Z,6.355896
2023-02-22T07:19:45.704Z,6.365967
2023-02-22T07:23:11.271Z,6.40625
2023-02-22T07:26:37.768Z,6.456604
2023-02-22T07:30:03.052Z,6.577454
2023-02-22T07:33:28.342Z,6.809082
2023-02-22T07:36:53.673Z,7.070923
2023-02-22T07:40:19.133Z,7.312622
2023-02-22T07:43:44.489Z,7.493896
2023-02-22T07:47:09.757Z,7.53418
2023-02-22T07:50:35.141Z,7.554321
2023-02-22T07:54:01.396Z,7.584534
2023-02-22T07:57:26.653Z,7.705383
2023-02-22T08:00:51.909Z,7.816162
2023-02-22T08:04:17.182Z,7.846375
2023-02-22T08:07:42.424Z,7.886658
2023-02-22T08:11:07.733Z,7.896729
2023-02-22T08:14:33.018Z,7.947083
2023-02-22T08:17:58.266Z,7.977295
2023-02-22T08:21:23.548Z,8.067932
2023-02-22T08:24:48.828Z,8.118286
2023-02-22T08:28:14.120Z,8.118286
2023-02-22T08:31:39.350Z,8.158569
2023-02-22T08:35:04.614Z,8.178711
2023-02-22T08:38:29.965Z,8.229065
2023-02-22T08:41:55.226Z,8.299561
2023-02-22T08:45:20.493Z,8.480835
2023-02-22T08:48:45.727Z,8.631897
2023-02-22T08:52:10.986Z,8.742676
2023-02-22T08:55:36.244Z,8.863525
2023-02-22T08:59:01.500Z,8.984375
2023-02-22T09:02:26.823Z,9.095154
2023-02-22T09:05:52.175Z,9.195862
2023-02-22T09:09:17.419Z,9.306641
2023-02-22T09:12:42.643Z,9.387207
2023-02-22T09:16:08.021Z,9.508057
2023-02-22T09:19:33.161Z,9.608765
2023-02-22T09:22:58.381Z,9.759827
2023-02-22T09:26:23.672Z,9.870605
2023-02-22T09:29:48.897Z,9.890747
2023-02-22T09:33:14.251Z,9.900818
2023-02-22T09:36:39.434Z,9.961243
2023-02-22T09:40:04.706Z,10.082092
2023-02-22T09:43:29.899Z,10.253296
2023-02-22T09:46:55.241Z,10.323792
2023-02-22T09:50:20.495Z,10.404358
2023-02-22T09:53:45.777Z,10.444641
2023-02-22T09:57:11.026Z,10.505066
2023-02-22T10:00:36.274Z,10.55542
2023-02-22T10:04:01.575Z,10.585632
2023-02-22T10:07:26.815Z,10.666199
2023-02-22T10:10:52.068Z,10.776978
2023-02-22T10:14:17.265Z,10.857544
2023-02-22T10:17:42.537Z,10.887756
2023-02-22T10:21:07.950Z,10.958252
2023-02-22T10:24:33.033Z,11.028748
2023-02-22T10:27:58.304Z,11.139526
2023-02-22T10:31:23.595Z,11.18988
2023-02-22T10:34:48.776Z,11.250305
2023-02-22T10:38:14.036Z,11.290588
2023-02-22T10:41:39.298Z,11.290588
2023-02-22T10:45:04.611Z,11.290588
2023-02-22T10:48:29.819Z,11.371155
2023-02-22T10:51:55.086Z,11.471863
2023-02-22T10:55:20.344Z,11.522217
2023-02-22T10:58:45.602Z,11.572571
2023-02-22T11:02:10.917Z,11.572571
2023-02-22T11:05:36.140Z,11.572571
2023-02-22T11:09:01.379Z,11.582642
2023-02-22T11:12:26.709Z,11.572571
2023-02-22T11:15:52.012Z,11.552429
2023-02-22T11:19:17.320Z,11.582642
2023-02-22T11:22:42.499Z,11.612854
2023-02-22T11:26:07.766Z,11.673279
2023-02-22T11:29:33.016Z,11.723633
2023-02-22T11:32:58.275Z,11.854553
2023-02-22T11:36:23.582Z,11.985474
2023-02-22T11:39:48.825Z,12.086182
2023-02-22T11:43:14.096Z,12.126465
2023-02-22T11:46:39.395Z,12.267456
2023-02-22T11:50:04.628Z,12.31781
2023-02-22T11:53:29.925Z,12.388306
2023-02-22T11:56:55.182Z,12.468872
2023-02-22T12:00:20.444Z,12.499084
2023-02-22T12:03:45.835Z,12.559509
2023-02-22T12:07:11.015Z,12.539368
2023-02-22T12:10:36.303Z,12.539368
2023-02-22T12:14:01.537Z,12.519226
2023-02-22T12:17:26.798Z,12.589722
2023-02-22T12:20:52.077Z,12.619934
2023-02-22T12:24:17.362Z,12.680359
2023-02-22T12:27:42.712Z,12.7005
2023-02-22T12:31:08.032Z,12.710571
2023-02-22T12:34:33.236Z,12.750854
2023-02-22T12:37:58.448Z,12.781067
2023-02-22T12:41:23.733Z,12.770996
2023-02-22T12:44:49.005Z,12.710571
2023-02-22T12:48:14.269Z,12.680359
2023-02-22T12:51:39.560Z,12.650146
2023-02-22T12:55:04.817Z,12.680359
2023-02-22T12:58:30.238Z,12.750854
2023-02-22T13:01:55.576Z,12.861633
2023-02-22T13:05:20.989Z,12.851562
2023-02-22T13:08:46.254Z,12.831421
2023-02-22T13:12:11.666Z,12.861633
2023-02-22T13:15:37.046Z,12.791138
2023-02-22T13:19:02.381Z,12.770996
2023-02-22T13:22:27.715Z,12.750854
2023-02-22T13:25:53.048Z,12.740784
2023-02-22T13:29:18.354Z,12.770996
2023-02-22T13:32:43.653Z,12.82135
2023-02-22T13:36:09.020Z,12.861633
2023-02-22T13:39:34.498Z,12.901917
2023-02-22T13:42:59.791Z,12.891846
2023-02-22T13:46:25.109Z,12.901917
2023-02-22T13:49:50.604Z,12.901917
2023-02-22T13:53:15.697Z,12.922058
2023-02-22T13:56:41.038Z,12.952271
2023-02-22T14:00:06.356Z,12.952271
2023-02-22T14:03:31.684Z,12.922058
2023-02-22T14:06:56.986Z,12.871704
2023-02-22T14:10:22.470Z,12.831421
2023-02-22T14:13:47.931Z,12.891846
2023-02-22T14:17:13.263Z,12.932129
2023-02-22T14:20:40.175Z,12.972412
2023-02-22T14:24:04.102Z,12.962341
2023-02-22T14:27:30.102Z,12.972412
2023-02-22T14:30:55.422Z,13.002625
2023-02-22T15:05:37.504Z,12.781067
2023-02-22T15:09:02.742Z,12.750854
2023-02-22T15:12:28.000Z,12.750854
2023-02-22T15:15:53.297Z,12.740784
2023-02-22T15:19:18.530Z,12.7005
2023-02-22T15:22:43.857Z,12.640076
2023-02-22T15:26:09.665Z,12.670288
2023-02-22T15:29:35.237Z,12.619934
2023-02-22T15:33:04.345Z,12.599792
2023-02-22T15:36:25.911Z,12.599792
2023-02-22T15:39:51.696Z,12.619934
2023-02-22T15:43:16.782Z,12.56958
2023-02-22T15:46:42.406Z,12.529297
2023-02-22T15:50:08.123Z,12.499084
2023-02-22T15:53:33.766Z,12.44873
2023-02-22T15:56:59.389Z,12.378235
2023-02-22T16:00:25.015Z,12.337952
2023-02-22T16:03:50.732Z,12.267456
2023-02-22T16:07:16.360Z,12.207031
2023-02-22T16:10:42.049Z,12.19696
2023-02-22T16:14:07.852Z,12.136536
2023-02-22T16:17:33.521Z,12.06604
2023-02-22T16:20:59.282Z,11.914978
2023-02-22T16:24:25.026Z,11.753845
2023-02-22T16:27:50.747Z,11.612854
2023-02-22T16:31:16.849Z,11.43158
2023-02-22T16:34:42.163Z,11.320801
2023-02-22T16:38:07.775Z,11.220093
2023-02-22T16:41:33.882Z,11.099243
2023-02-22T16:44:59.630Z,10.988464
2023-02-22T16:48:25.300Z,10.877686
2023-02-22T16:51:50.897Z,10.80719
2023-02-22T16:55:16.778Z,10.656128
2023-02-22T16:58:42.513Z,10.515137
2023-02-22T17:02:08.181Z,10.444641
2023-02-22T17:05:33.827Z,10.323792
2023-02-22T17:08:58.977Z,10.233154
2023-02-22T17:12:24.243Z,10.112305
2023-02-22T17:15:49.572Z,9.971313
2023-02-22T17:19:14.774Z,9.840393
2023-02-22T17:22:40.379Z,9.689331
2023-02-22T17:26:06.118Z,9.649048
2023-02-22T17:29:32.979Z,9.649048
2023-02-22T17:32:59.742Z,9.659119
2023-02-22T17:36:26.716Z,9.598694
2023-02-22T17:39:53.677Z,9.558411
2023-02-22T17:43:20.651Z,9.508057
2023-02-22T17:46:47.660Z,9.457703
2023-02-22T17:50:15.151Z,9.417419
2023-02-22T17:53:42.090Z,9.397278
2023-02-22T17:57:09.244Z,9.387207
2023-02-22T18:00:36.075Z,9.377136
2023-02-22T18:04:02.963Z,9.417419
2023-02-22T18:07:29.950Z,9.346924
2023-02-22T18:10:56.923Z,9.306641
2023-02-22T18:14:24.061Z,9.286499
2023-02-22T18:17:51.272Z,9.205933
2023-02-22T18:21:18.397Z,9.165649
2023-02-22T18:24:45.363Z,9.145508
2023-02-22T18:28:12.662Z,9.105225
2023-02-22T18:31:39.816Z,9.125366
2023-02-22T18:35:06.634Z,9.125366
2023-02-22T18:38:33.610Z,8.964233
2023-02-22T18:42:01.249Z,8.813171
2023-02-22T18:45:28.695Z,8.662109
2023-02-22T18:48:55.737Z,8.631897
2023-02-22T18:52:22.833Z,8.682251
2023-02-22T18:55:50.176Z,8.732605
2023-02-22T18:59:17.383Z,8.843384
2023-02-22T19:02:44.995Z,8.964233
2023-02-22T19:06:12.779Z,9.0448
2023-02-22T19:09:40.287Z,8.994446
2023-02-22T19:13:07.686Z,8.964233
2023-02-22T19:16:35.134Z,8.893738
2023-02-22T19:20:02.351Z,8.813171
2023-02-22T19:23:32.225Z,8.833313
2023-02-22T19:26:57.552Z,8.813171
2023-02-22T19:30:24.984Z,8.833313
2023-02-22T19:33:52.726Z,8.833313
2023-02-22T19:37:20.620Z,8.79303
2023-02-22T19:40:48.411Z,8.79303
2023-02-22T19:44:15.729Z,8.712463
2023-02-22T19:47:43.047Z,8.702393
2023-02-22T19:51:10.668Z,8.662109
2023-02-22T19:54:38.151Z,8.682251
2023-02-22T19:58:05.621Z,8.682251
2023-02-22T20:01:33.466Z,8.682251
2023-02-22T20:05:01.432Z,8.702393
2023-02-22T20:08:29.533Z,8.682251
2023-02-22T20:11:57.637Z,8.631897
2023-02-22T20:15:25.540Z,8.79303
2023-02-22T20:18:53.465Z,8.954163
2023-02-22T20:22:21.296Z,9.105225
2023-02-22T20:25:49.290Z,9.205933
2023-02-22T20:29:17.669Z,9.195862
2023-02-22T20:32:48.592Z,9.276428
2023-02-22T20:36:16.964Z,9.316711
2023-02-22T20:39:44.941Z,9.377136
2023-02-22T20:43:12.712Z,9.477844
2023-02-22T20:46:39.995Z,9.508057
2023-02-22T20:50:07.729Z,9.538269
2023-02-22T20:53:33.486Z,9.477844
2023-02-22T20:56:59.256Z,9.528198
2023-02-22T21:00:24.920Z,9.497986
2023-02-22T21:03:50.694Z,9.477844
2023-02-22T21:07:16.464Z,9.477844
2023-02-22T21:10:42.142Z,9.42749
2023-02-22T21:14:07.910Z,9.397278
2023-02-22T21:17:33.637Z,9.397278
2023-02-22T21:20:59.419Z,9.356995
2023-02-22T21:24:25.348Z,9.286499
2023-02-22T21:27:50.877Z,9.286499
2023-02-22T21:31:17.048Z,9.276428
2023-02-22T21:34:42.335Z,9.236145
2023-02-22T21:38:08.143Z,9.205933
2023-02-22T21:41:34.026Z,9.226074
2023-02-22T21:44:59.593Z,9.276428
2023-02-22T21:48:25.319Z,9.226074
2023-02-22T21:51:51.090Z,9.205933
2023-02-22T21:55:16.828Z,9.205933
2023-02-22T21:58:42.630Z,9.286499
2023-02-22T22:02:08.365Z,9.326782
2023-02-22T22:05:34.093Z,9.256287
2023-02-22T22:08:59.908Z,9.195862
2023-02-22T22:12:30.916Z,9.17572
2023-02-22T22:15:51.479Z,9.195862
2023-02-22T22:19:17.157Z,9.226074
2023-02-22T22:22:42.878Z,9.195862
2023-02-22T22:26:08.705Z,9.17572
2023-02-22T22:29:34.700Z,9.17572
2023-02-22T22:33:00.176Z,9.17572
2023-02-22T22:36:25.870Z,9.286499
2023-02-22T22:39:51.623Z,9.256287
2023-02-22T22:43:17.319Z,9.236145
2023-02-22T22:46:43.021Z,9.236145
2023-02-22T22:50:08.757Z,9.195862
2023-02-22T22:53:34.496Z,9.095154
2023-02-22T22:57:00.216Z,9.0448
2023-02-22T23:00:25.930Z,9.0448
2023-02-22T23:03:51.690Z,9.075012
2023-02-22T23:07:17.428Z,9.075012
2023-02-22T23:10:43.160Z,9.054871
2023-02-22T23:14:08.828Z,9.024658
2023-02-22T23:17:34.565Z,9.0448
2023-02-22T23:21:00.266Z,8.994446
2023-02-22T23:24:26.035Z,8.92395
2023-02-22T23:27:51.674Z,8.964233
2023-02-22T23:31:17.775Z,8.984375
2023-02-22T23:34:43.099Z,8.994446
2023-02-22T23:38:10.974Z,8.984375
2023-02-22T23:41:34.543Z,8.964233
2023-02-22T23:45:00.235Z,8.944092
2023-02-22T23:48:25.925Z,8.913879
2023-02-22T23:51:51.701Z,8.843384
2023-02-22T23:55:17.535Z,8.79303
2023-02-22T23:58:43.298Z,8.662109
